createdAt,value
2016-10-18T00:00:45.823Z,0
2016-10-18T00:01:46.132Z,0
2016-10-18T00:02:46.111Z,0
2016-10-18T00:03:46.086Z,0
2016-10-18T00:04:46.073Z,0
2016-10-18T00:05:46.060Z,0
2016-10-18T00:06:46.044Z,0
2016-10-18T00:07:46.036Z,0
2016-10-18T00:08:45.689Z,0
2016-10-18T00:09:45.993Z,0
2016-10-18T00:10:45.669Z,0
2016-10-18T00:11:45.959Z,0
2016-10-18T00:12:45.946Z,0
2016-10-18T00:13:45.299Z,0
2016-10-18T00:14:45.900Z,0
2016-10-18T00:15:45.578Z,0
2016-10-18T00:16:45.565Z,0
2016-10-18T00:17:45.550Z,0
2016-10-18T00:18:45.534Z,0
2016-10-18T00:19:45.830Z,0
2016-10-18T00:20:45.493Z,0
2016-10-18T00:21:45.808Z,0
2016-10-18T00:22:45.784Z,0
2016-10-18T00:23:45.772Z,0
2016-10-18T00:24:45.436Z,0
2016-10-18T00:25:45.738Z,0
2016-10-18T00:26:45.405Z,0
2016-10-18T00:27:45.691Z,0
2016-10-18T00:28:45.689Z,0
2016-10-18T00:29:45.353Z,0
2016-10-18T00:30:45.016Z,0
2016-10-18T00:31:45.323Z,0
2016-10-18T00:32:45.629Z,0
2016-10-18T00:33:45.600Z,0
2016-10-18T00:34:45.579Z,0
2016-10-18T00:35:45.572Z,0
2016-10-18T00:36:45.587Z,0
2016-10-18T00:37:45.522Z,0
2016-10-18T00:38:45.509Z,0
2016-10-18T00:39:45.504Z,0
2016-10-18T00:40:45.477Z,0
2016-10-18T00:41:45.154Z,0
2016-10-18T00:42:45.446Z,0
2016-10-18T00:43:45.429Z,0
2016-10-18T00:44:45.415Z,0
2016-10-18T00:45:45.406Z,0
2016-10-18T00:46:45.381Z,0
2016-10-18T00:47:45.039Z,0
2016-10-18T00:48:45.348Z,0
2016-10-18T00:49:45.328Z,0
2016-10-18T00:50:45.009Z,0
2016-10-18T00:51:45.288Z,0
2016-10-18T00:52:45.285Z,0
2016-10-18T00:53:44.952Z,0
2016-10-18T00:54:45.243Z,0
2016-10-18T00:55:45.238Z,0
2016-10-18T00:56:45.212Z,0
2016-10-18T00:57:45.208Z,0
2016-10-18T00:58:45.177Z,0
2016-10-18T00:59:45.167Z,0
2016-10-18T01:00:44.826Z,0
2016-10-18T01:01:45.136Z,0
2016-10-18T01:02:45.121Z,0
2016-10-18T01:03:44.801Z,0
2016-10-18T01:04:44.762Z,0
2016-10-18T01:05:45.063Z,0
2016-10-18T01:06:45.091Z,0
2016-10-18T01:07:45.030Z,0
2016-10-18T01:08:44.725Z,0
2016-10-18T01:09:45.006Z,0
2016-10-18T01:10:44.978Z,0
2016-10-18T01:11:44.966Z,0
2016-10-18T01:12:44.949Z,0
2016-10-18T01:13:44.934Z,0
2016-10-18T01:14:44.914Z,0
2016-10-18T01:15:44.893Z,0
2016-10-18T01:16:44.875Z,0
2016-10-18T01:17:44.851Z,0
2016-10-18T01:18:44.528Z,0
2016-10-18T01:19:44.833Z,0
2016-10-18T01:20:44.515Z,0
2016-10-18T01:21:44.790Z,0
2016-10-18T01:22:44.149Z,0
2016-10-18T01:23:44.766Z,0
2016-10-18T01:24:44.749Z,0
2016-10-18T01:25:44.730Z,0
2016-10-18T01:26:44.397Z,0
2016-10-18T01:27:44.378Z,0
2016-10-18T01:28:44.672Z,0
2016-10-18T01:29:44.342Z,0
2016-10-18T01:30:44.332Z,0
2016-10-18T01:31:44.632Z,0
2016-10-18T01:32:44.608Z,0
2016-10-18T01:33:44.626Z,0
2016-10-18T01:34:44.565Z,0
2016-10-18T01:35:44.592Z,0
2016-10-18T01:36:44.552Z,0
2016-10-18T01:37:44.528Z,0
2016-10-18T01:38:44.185Z,0
2016-10-18T01:39:44.172Z,0
2016-10-18T01:40:44.162Z,0
2016-10-18T01:41:44.139Z,0
2016-10-18T01:42:44.440Z,0
2016-10-18T01:43:44.455Z,0
2016-10-18T01:44:44.097Z,0
2016-10-18T01:45:44.068Z,0
2016-10-18T01:46:44.055Z,0
2016-10-18T01:47:44.041Z,0
2016-10-18T01:48:44.345Z,0
2016-10-18T01:49:44.002Z,0
2016-10-18T01:50:43.672Z,0
2016-10-18T01:51:44.279Z,0
2016-10-18T01:52:44.266Z,0
2016-10-18T01:53:44.258Z,0
2016-10-18T01:54:43.923Z,0
2016-10-18T01:55:43.902Z,0
2016-10-18T01:56:44.203Z,0
2016-10-18T01:57:44.189Z,0
2016-10-18T01:58:44.166Z,0
2016-10-18T01:59:44.153Z,0
2016-10-18T02:00:44.182Z,0
2016-10-18T02:01:44.113Z,0
2016-10-18T02:02:44.090Z,0
2016-10-18T02:03:44.084Z,0
2016-10-18T02:04:44.073Z,0
2016-10-18T02:05:44.056Z,0
2016-10-18T02:06:43.714Z,0
2016-10-18T02:07:44.019Z,0
2016-10-18T02:08:43.989Z,0
2016-10-18T02:09:43.985Z,0
2016-10-18T02:10:43.648Z,0
2016-10-18T02:11:43.636Z,0
2016-10-18T02:12:43.301Z,0
2016-10-18T02:13:43.908Z,0
2016-10-18T02:14:43.589Z,0
2016-10-18T02:15:43.870Z,0
2016-10-18T02:16:43.539Z,0
2016-10-18T02:17:43.875Z,0
2016-10-18T02:18:43.834Z,0
2016-10-18T02:19:43.849Z,0
2016-10-18T02:20:43.836Z,0
2016-10-18T02:21:43.461Z,0
2016-10-18T02:22:43.757Z,0
2016-10-18T02:23:43.436Z,0
2016-10-18T02:24:43.727Z,0
2016-10-18T02:25:43.721Z,0
2016-10-18T02:26:43.063Z,0
2016-10-18T02:27:43.681Z,0
2016-10-18T02:28:43.338Z,0
2016-10-18T02:29:43.333Z,0
2016-10-18T02:30:43.635Z,0
2016-10-18T02:31:43.604Z,0
2016-10-18T02:32:43.278Z,0
2016-10-18T02:33:43.574Z,0
2016-10-18T02:34:43.560Z,0
2016-10-18T02:35:43.562Z,0
2016-10-18T02:36:43.533Z,0
2016-10-18T02:37:43.195Z,0
2016-10-18T02:38:43.517Z,0
2016-10-18T02:39:43.473Z,0
2016-10-18T02:40:43.141Z,0
2016-10-18T02:41:43.436Z,0
2016-10-18T02:42:43.125Z,0
2016-10-18T02:43:43.401Z,0
2016-10-18T02:44:43.397Z,0
2016-10-18T02:45:43.373Z,0
2016-10-18T02:46:43.360Z,0
2016-10-18T02:47:43.347Z,0
2016-10-18T02:48:43.334Z,0
2016-10-18T02:49:43.309Z,0
2016-10-18T02:50:43.296Z,0
2016-10-18T02:51:43.274Z,0
2016-10-18T02:52:43.262Z,0
2016-10-18T02:53:43.248Z,0
2016-10-18T02:54:42.911Z,0
2016-10-18T02:55:42.891Z,0
2016-10-18T02:56:43.188Z,0
2016-10-18T02:57:43.169Z,0
2016-10-18T02:58:43.158Z,0
2016-10-18T02:59:43.134Z,0
2016-10-18T03:00:42.803Z,0
2016-10-18T03:01:42.796Z,0
2016-10-18T03:02:42.771Z,0
2016-10-18T03:03:43.074Z,0
2016-10-18T03:04:43.062Z,0
2016-10-18T03:05:42.721Z,0
2016-10-18T03:06:42.708Z,0
2016-10-18T03:07:43.007Z,0
2016-10-18T03:08:42.672Z,0
2016-10-18T03:09:42.969Z,0
2016-10-18T03:10:42.957Z,0
2016-10-18T03:11:42.624Z,0
2016-10-18T03:12:42.923Z,0
2016-10-18T03:13:42.904Z,0
2016-10-18T03:14:42.886Z,0
2016-10-18T03:15:42.881Z,0
2016-10-18T03:16:42.540Z,0
2016-10-18T03:17:42.518Z,0
2016-10-18T03:18:42.825Z,0
2016-10-18T03:19:42.488Z,0
2016-10-18T03:20:42.783Z,0
2016-10-18T03:21:42.772Z,0
2016-10-18T03:22:42.749Z,0
2016-10-18T03:23:42.775Z,0
2016-10-18T03:24:42.718Z,0
2016-10-18T03:25:42.703Z,0
2016-10-18T03:26:42.726Z,0
2016-10-18T03:27:42.351Z,0
2016-10-18T03:28:42.333Z,0
2016-10-18T03:29:42.642Z,0
2016-10-18T03:30:42.623Z,0
2016-10-18T03:31:42.609Z,0
2016-10-18T03:32:42.274Z,0
2016-10-18T03:33:42.567Z,0
2016-10-18T03:34:42.554Z,0
2016-10-18T03:35:42.221Z,0
2016-10-18T03:36:42.525Z,0
2016-10-18T03:37:42.504Z,0
2016-10-18T03:38:42.171Z,0
2016-10-18T03:39:42.465Z,0
2016-10-18T03:40:42.455Z,0
2016-10-18T03:41:42.129Z,0
2016-10-18T03:42:42.426Z,0
2016-10-18T03:43:42.403Z,0
2016-10-18T03:44:42.073Z,0
2016-10-18T03:45:42.060Z,0
2016-10-18T03:46:42.369Z,0
2016-10-18T03:47:42.055Z,0
2016-10-18T03:48:41.376Z,0
2016-10-18T03:49:42.349Z,0
2016-10-18T03:50:42.283Z,0
2016-10-18T03:51:42.268Z,0
2016-10-18T03:52:42.247Z,0
2016-10-18T03:53:41.628Z,0
2016-10-18T03:54:42.230Z,0
2016-10-18T03:55:42.243Z,0
2016-10-18T03:56:42.196Z,0
2016-10-18T03:57:42.171Z,0
2016-10-18T03:58:42.197Z,0
2016-10-18T03:59:41.862Z,0
2016-10-18T04:00:42.112Z,0
2016-10-18T04:01:42.114Z,0
2016-10-18T04:02:42.083Z,0
2016-10-18T04:03:42.075Z,0
2016-10-18T04:04:42.046Z,0
2016-10-18T04:05:42.026Z,0
2016-10-18T04:06:42.009Z,0
2016-10-18T04:07:42.010Z,0
2016-10-18T04:08:41.987Z,0
2016-10-18T04:09:41.964Z,0
2016-10-18T04:10:41.954Z,0
2016-10-18T04:11:41.935Z,0
2016-10-18T04:12:41.954Z,0
2016-10-18T04:13:41.596Z,0
2016-10-18T04:14:41.563Z,0
2016-10-18T04:15:41.858Z,0
2016-10-18T04:16:41.853Z,0
2016-10-18T04:17:41.843Z,0
2016-10-18T04:18:41.500Z,0
2016-10-18T04:19:41.803Z,0
2016-10-18T04:20:41.784Z,0
2016-10-18T04:21:41.773Z,0
2016-10-18T04:22:41.753Z,0
2016-10-18T04:23:41.739Z,0
2016-10-18T04:24:41.717Z,0
2016-10-18T04:25:41.706Z,0
2016-10-18T04:26:41.693Z,0
2016-10-18T04:27:41.357Z,0
2016-10-18T04:28:41.657Z,0
2016-10-18T04:29:41.327Z,0
2016-10-18T04:30:40.682Z,0
2016-10-18T04:31:41.595Z,0
2016-10-18T04:32:41.265Z,0
2016-10-18T04:33:41.568Z,0
2016-10-18T04:34:41.553Z,0
2016-10-18T04:35:41.228Z,0
2016-10-18T04:36:41.514Z,0
2016-10-18T04:37:41.495Z,0
2016-10-18T04:38:41.497Z,0
2016-10-18T04:39:41.483Z,0
2016-10-18T04:40:41.140Z,0
2016-10-18T04:41:41.442Z,0
2016-10-18T04:42:41.099Z,0
2016-10-18T04:43:41.092Z,0
2016-10-18T04:44:41.388Z,0
2016-10-18T04:45:41.374Z,0
2016-10-18T04:46:41.360Z,0
2016-10-18T04:47:41.345Z,0
2016-10-18T04:48:41.318Z,0
2016-10-18T04:49:41.335Z,0
2016-10-18T04:50:41.292Z,0
2016-10-18T04:51:41.309Z,0
2016-10-18T04:52:40.947Z,0
2016-10-18T04:53:41.241Z,0
2016-10-18T04:54:40.910Z,0
2016-10-18T04:55:41.210Z,0
2016-10-18T04:56:40.871Z,0
2016-10-18T04:57:41.170Z,0
2016-10-18T04:58:41.194Z,0
2016-10-18T04:59:41.182Z,0
2016-10-18T05:00:41.121Z,0
2016-10-18T05:01:40.789Z,0
2016-10-18T05:02:41.092Z,0
2016-10-18T05:03:41.079Z,0
2016-10-18T05:04:41.065Z,0
2016-10-18T05:05:40.730Z,0
2016-10-18T05:06:41.022Z,0
2016-10-18T05:07:41.002Z,0
2016-10-18T05:08:40.990Z,0
2016-10-18T05:09:40.968Z,0
2016-10-18T05:10:40.647Z,0
2016-10-18T05:11:40.941Z,0
2016-10-18T05:12:40.612Z,0
2016-10-18T05:13:40.899Z,0
2016-10-18T05:14:40.580Z,0
2016-10-18T05:15:40.874Z,0
2016-10-18T05:16:40.851Z,0
2016-10-18T05:17:40.853Z,0
2016-10-18T05:18:40.870Z,0
2016-10-18T05:19:40.813Z,0
2016-10-18T05:20:40.803Z,0
2016-10-18T05:21:40.815Z,0
2016-10-18T05:22:40.759Z,0
2016-10-18T05:23:40.740Z,0
2016-10-18T05:24:40.758Z,0
2016-10-18T05:25:40.715Z,0
2016-10-18T05:26:40.417Z,0
2016-10-18T05:27:40.676Z,0
2016-10-18T05:28:40.670Z,0
2016-10-18T05:29:40.646Z,0
2016-10-18T05:30:40.311Z,0
2016-10-18T05:31:40.603Z,0
2016-10-18T05:32:40.290Z,0
2016-10-18T05:33:40.583Z,0
2016-10-18T05:34:39.933Z,0
2016-10-18T05:35:40.549Z,0
2016-10-18T05:36:40.535Z,0
2016-10-18T05:37:40.520Z,0
2016-10-18T05:38:40.549Z,0
2016-10-18T05:39:40.184Z,0
2016-10-18T05:40:40.462Z,0
2016-10-18T05:41:40.467Z,0
2016-10-18T05:42:40.430Z,0
2016-10-18T05:43:40.415Z,0
2016-10-18T05:44:40.094Z,0
2016-10-18T05:45:40.387Z,0
2016-10-18T05:46:40.367Z,0
2016-10-18T05:47:40.359Z,0
2016-10-18T05:48:40.345Z,0
2016-10-18T05:49:40.002Z,0
2016-10-18T05:50:40.302Z,0
2016-10-18T05:51:40.289Z,0
2016-10-18T05:52:40.316Z,0
2016-10-18T05:53:40.248Z,0
2016-10-18T05:54:39.919Z,0
2016-10-18T05:55:40.236Z,0
2016-10-18T05:56:39.897Z,0
2016-10-18T05:57:40.187Z,0
2016-10-18T05:58:39.865Z,0
2016-10-18T05:59:40.159Z,0
2016-10-18T06:00:40.138Z,0
2016-10-18T06:01:40.121Z,0
2016-10-18T06:02:40.124Z,0
2016-10-18T06:03:40.098Z,0
2016-10-18T06:04:40.083Z,0
2016-10-18T06:05:40.054Z,0
2016-10-18T06:06:40.041Z,0
2016-10-18T06:07:40.024Z,0
2016-10-18T06:08:40.020Z,0
2016-10-18T06:09:39.375Z,0
2016-10-18T06:10:39.660Z,0
2016-10-18T06:11:39.657Z,0
2016-10-18T06:12:39.952Z,0
2016-10-18T06:13:39.934Z,0
2016-10-18T06:14:39.918Z,0
2016-10-18T06:15:39.582Z,0
2016-10-18T06:16:39.885Z,0
2016-10-18T06:17:39.868Z,0
2016-10-18T06:18:39.542Z,0
2016-10-18T06:19:39.533Z,0
2016-10-18T06:20:39.822Z,0
2016-10-18T06:21:39.800Z,0
2016-10-18T06:22:39.528Z,0
2016-10-18T06:23:39.459Z,0
2016-10-18T06:24:39.439Z,0
2016-10-18T06:25:39.418Z,0
2016-10-18T06:26:39.719Z,0
2016-10-18T06:27:39.703Z,0
2016-10-18T06:28:39.687Z,0
2016-10-18T06:29:39.369Z,0
2016-10-18T06:30:39.694Z,0
2016-10-18T06:31:39.009Z,0
2016-10-18T06:32:39.624Z,0
2016-10-18T06:33:39.294Z,0
2016-10-18T06:34:39.589Z,0
2016-10-18T06:35:39.592Z,0
2016-10-18T06:36:39.247Z,0
2016-10-18T06:37:39.546Z,0
2016-10-18T06:38:39.225Z,0
2016-10-18T06:39:39.516Z,0
2016-10-18T06:40:39.530Z,4
2016-10-18T06:41:39.481Z,4
2016-10-18T06:42:39.145Z,4
2016-10-18T06:43:39.139Z,4
2016-10-18T06:44:39.431Z,4
2016-10-18T06:45:39.410Z,0
2016-10-18T06:46:39.089Z,0
2016-10-18T06:47:39.382Z,4
2016-10-18T06:48:39.372Z,4
2016-10-18T06:49:39.039Z,4
2016-10-18T06:50:39.330Z,4
2016-10-18T06:51:39.317Z,4
2016-10-18T06:52:39.296Z,4
2016-10-18T06:53:39.285Z,4
2016-10-18T06:54:39.269Z,4
2016-10-18T06:55:39.259Z,8
2016-10-18T06:56:38.917Z,8
2016-10-18T06:57:38.910Z,8
2016-10-18T06:58:39.203Z,12
2016-10-18T06:59:38.552Z,12
2016-10-18T07:00:39.176Z,12
2016-10-18T07:01:38.845Z,12
2016-10-18T07:02:38.828Z,16
2016-10-18T07:03:39.127Z,12
2016-10-18T07:04:39.103Z,16
2016-10-18T07:05:39.084Z,16
2016-10-18T07:06:39.075Z,20
2016-10-18T07:07:38.742Z,20
2016-10-18T07:08:39.095Z,24
2016-10-18T07:09:38.722Z,24
2016-10-18T07:10:39.014Z,24
2016-10-18T07:11:38.993Z,24
2016-10-18T07:12:39.026Z,24
2016-10-18T07:13:38.640Z,24
2016-10-18T07:14:38.624Z,24
2016-10-18T07:15:38.930Z,20
2016-10-18T07:16:38.604Z,20
2016-10-18T07:17:38.899Z,20
2016-10-18T07:18:38.878Z,24
2016-10-18T07:19:38.245Z,20
2016-10-18T07:20:38.839Z,24
2016-10-18T07:21:38.840Z,24
2016-10-18T07:22:38.511Z,24
2016-10-18T07:23:38.816Z,24
2016-10-18T07:24:38.778Z,24
2016-10-18T07:25:38.765Z,24
2016-10-18T07:26:38.793Z,24
2016-10-18T07:27:38.738Z,24
2016-10-18T07:28:38.721Z,24
2016-10-18T07:29:38.704Z,24
2016-10-18T07:30:38.680Z,24
2016-10-18T07:31:38.660Z,24
2016-10-18T07:32:38.648Z,24
2016-10-18T07:33:38.636Z,24
2016-10-18T07:34:38.623Z,24
2016-10-18T07:35:38.598Z,24
2016-10-18T07:36:38.619Z,24
2016-10-18T07:37:38.606Z,28
2016-10-18T07:38:38.564Z,24
2016-10-18T07:39:38.547Z,24
2016-10-18T07:40:38.209Z,24
2016-10-18T07:41:38.509Z,24
2016-10-18T07:42:38.493Z,28
2016-10-18T07:43:38.514Z,24
2016-10-18T07:44:38.479Z,24
2016-10-18T07:45:38.480Z,28
2016-10-18T07:46:38.455Z,24
2016-10-18T07:47:38.412Z,24
2016-10-18T07:48:38.398Z,24
2016-10-18T07:49:38.371Z,24
2016-10-18T07:50:38.076Z,24
2016-10-18T07:51:38.025Z,24
2016-10-18T07:52:38.332Z,24
2016-10-18T07:53:37.994Z,24
2016-10-18T07:54:38.299Z,24
2016-10-18T07:55:38.282Z,24
2016-10-18T07:56:38.269Z,24
2016-10-18T07:57:37.932Z,24
2016-10-18T07:58:37.924Z,24
2016-10-18T07:59:37.911Z,24
2016-10-18T08:00:37.890Z,24
2016-10-18T08:01:38.193Z,28
2016-10-18T08:02:37.906Z,28
2016-10-18T08:03:37.530Z,8
2016-10-18T08:04:38.146Z,8
2016-10-18T08:05:38.122Z,4
2016-10-18T08:06:37.792Z,8
2016-10-18T08:07:38.138Z,4
2016-10-18T08:08:38.074Z,8
2016-10-18T08:09:37.737Z,4
2016-10-18T08:10:38.046Z,4
2016-10-18T08:11:38.033Z,4
2016-10-18T08:12:38.008Z,4
2016-10-18T08:13:37.072Z,4
2016-10-18T08:14:37.659Z,4
2016-10-18T08:15:37.646Z,4
2016-10-18T08:16:37.683Z,4
2016-10-18T08:17:37.630Z,4
2016-10-18T08:18:37.604Z,4
2016-10-18T08:19:37.921Z,4
2016-10-18T08:20:37.888Z,4
2016-10-18T08:21:37.905Z,4
2016-10-18T08:22:37.562Z,4
2016-10-18T08:23:37.855Z,4
2016-10-18T08:24:37.852Z,4
2016-10-18T08:25:37.820Z,4
2016-10-18T08:26:37.464Z,4
2016-10-18T08:27:37.772Z,4
2016-10-18T08:28:37.802Z,8
2016-10-18T08:29:37.741Z,4
2016-10-18T08:30:37.720Z,4
2016-10-18T08:31:37.727Z,4
2016-10-18T08:32:37.381Z,4
2016-10-18T08:33:37.676Z,4
2016-10-18T08:34:37.358Z,4
2016-10-18T08:35:37.638Z,8
2016-10-18T08:36:37.633Z,4
2016-10-18T08:37:37.612Z,4
2016-10-18T08:38:37.608Z,4
2016-10-18T08:39:37.580Z,4
2016-10-18T08:40:37.562Z,4
2016-10-18T08:41:37.543Z,4
2016-10-18T08:42:37.210Z,4
2016-10-18T08:43:37.202Z,4
2016-10-18T08:44:37.481Z,4
2016-10-18T08:45:37.173Z,4
2016-10-18T08:46:37.461Z,4
2016-10-18T08:47:37.449Z,8
2016-10-18T08:48:37.129Z,4
2016-10-18T08:49:37.110Z,4
2016-10-18T08:50:37.090Z,4
2016-10-18T08:51:36.751Z,8
2016-10-18T08:52:37.372Z,8
2016-10-18T08:53:37.352Z,8
2016-10-18T08:54:37.337Z,8
2016-10-18T08:55:37.320Z,8
2016-10-18T08:56:37.299Z,12
2016-10-18T08:57:37.287Z,8
2016-10-18T08:58:37.274Z,12
2016-10-18T08:59:36.943Z,12
2016-10-18T09:00:36.932Z,12
2016-10-18T09:01:37.219Z,12
2016-10-18T09:02:37.202Z,8
2016-10-18T09:03:37.230Z,8
2016-10-18T09:04:37.175Z,8
2016-10-18T09:05:37.160Z,8
2016-10-18T09:06:37.147Z,12
2016-10-18T09:07:37.140Z,12
2016-10-18T09:08:36.796Z,12
2016-10-18T09:09:36.789Z,8
2016-10-18T09:10:37.079Z,8
2016-10-18T09:11:36.741Z,12
2016-10-18T09:12:36.732Z,16
2016-10-18T09:13:36.403Z,16
2016-10-18T09:14:37.047Z,16
2016-10-18T09:15:37.012Z,12
2016-10-18T09:16:36.983Z,12
2016-10-18T09:17:36.968Z,12
2016-10-18T09:18:36.643Z,8
2016-10-18T09:19:36.619Z,8
2016-10-18T09:20:36.923Z,4
2016-10-18T09:21:36.901Z,8
2016-10-18T09:22:36.572Z,12
2016-10-18T09:23:36.589Z,12
2016-10-18T09:24:36.856Z,8
2016-10-18T09:25:36.838Z,8
2016-10-18T09:26:36.506Z,8
2016-10-18T09:27:36.494Z,12
2016-10-18T09:28:36.796Z,8
2016-10-18T09:29:36.515Z,8
2016-10-18T09:30:36.440Z,8
2016-10-18T09:31:36.750Z,8
2016-10-18T09:32:36.725Z,12
2016-10-18T09:33:36.418Z,12
2016-10-18T09:34:36.702Z,12
2016-10-18T09:35:36.701Z,12
2016-10-18T09:36:36.668Z,12
2016-10-18T09:37:36.329Z,8
2016-10-18T09:38:36.314Z,8
2016-10-18T09:39:36.300Z,12
2016-10-18T09:40:36.595Z,12
2016-10-18T09:41:36.592Z,12
2016-10-18T09:42:36.257Z,8
2016-10-18T09:43:36.576Z,8
2016-10-18T09:44:36.531Z,8
2016-10-18T09:45:36.210Z,8
2016-10-18T09:46:36.190Z,4
2016-10-18T09:47:36.485Z,8
2016-10-18T09:48:36.156Z,8
2016-10-18T09:49:36.479Z,8
2016-10-18T09:50:36.476Z,12
2016-10-18T09:51:36.473Z,12
2016-10-18T09:52:36.415Z,12
2016-10-18T09:53:36.398Z,16
2016-10-18T09:54:36.427Z,12
2016-10-18T09:55:36.364Z,20
2016-10-18T09:56:36.360Z,20
2016-10-18T09:57:36.604Z,20
2016-10-18T09:58:36.331Z,20
2016-10-18T09:59:36.339Z,20
2016-10-18T10:00:36.292Z,24
2016-10-18T10:01:35.949Z,24
2016-10-18T10:02:36.286Z,20
2016-10-18T10:03:36.244Z,16
2016-10-18T10:04:36.223Z,20
2016-10-18T10:05:36.209Z,20
2016-10-18T10:06:35.884Z,20
2016-10-18T10:07:35.915Z,20
2016-10-18T10:08:36.158Z,20
2016-10-18T10:09:36.147Z,20
2016-10-18T10:10:35.820Z,12
2016-10-18T10:11:36.119Z,12
2016-10-18T10:12:35.778Z,12
2016-10-18T10:13:35.769Z,12
2016-10-18T10:14:35.746Z,12
2016-10-18T10:15:35.737Z,12
2016-10-18T10:16:36.040Z,16
2016-10-18T10:17:36.018Z,16
2016-10-18T10:18:36.006Z,12
2016-10-18T10:19:35.677Z,12
2016-10-18T10:20:35.343Z,16
2016-10-18T10:21:35.652Z,16
2016-10-18T10:22:35.639Z,12
2016-10-18T10:23:35.293Z,12
2016-10-18T10:24:35.604Z,8
2016-10-18T10:25:35.581Z,12
2016-10-18T10:26:35.890Z,16
2016-10-18T10:27:35.866Z,16
2016-10-18T10:28:35.857Z,12
2016-10-18T10:29:35.833Z,12
2016-10-18T10:30:35.814Z,12
2016-10-18T10:31:35.491Z,8
2016-10-18T10:32:34.835Z,8
2016-10-18T10:33:35.767Z,8
2016-10-18T10:34:35.755Z,8
2016-10-18T10:35:35.423Z,8
2016-10-18T10:36:35.724Z,8
2016-10-18T10:37:35.712Z,8
2016-10-18T10:38:35.683Z,8
2016-10-18T10:39:35.677Z,12
2016-10-18T10:40:35.335Z,16
2016-10-18T10:41:35.645Z,16
2016-10-18T10:42:35.628Z,16
2016-10-18T10:43:35.616Z,16
2016-10-18T10:44:35.282Z,12
2016-10-18T10:45:35.580Z,8
2016-10-18T10:46:35.245Z,12
2016-10-18T10:47:35.548Z,20
2016-10-18T10:48:35.213Z,16
2016-10-18T10:49:35.508Z,16
2016-10-18T10:50:35.184Z,24
2016-10-18T10:51:35.479Z,24
2016-10-18T10:52:35.466Z,24
2016-10-18T10:53:35.445Z,24
2016-10-18T10:54:35.437Z,24
2016-10-18T10:55:35.421Z,24
2016-10-18T10:56:35.444Z,28
2016-10-18T10:57:35.388Z,28
2016-10-18T10:58:34.425Z,28
2016-10-18T10:59:35.040Z,28
2016-10-18T11:00:35.343Z,24
2016-10-18T11:01:35.326Z,24
2016-10-18T11:02:35.314Z,16
2016-10-18T11:03:34.983Z,16
2016-10-18T11:04:34.965Z,12
2016-10-18T11:05:35.258Z,16
2016-10-18T11:06:34.924Z,16
2016-10-18T11:07:35.232Z,20
2016-10-18T11:08:34.889Z,24
2016-10-18T11:09:35.198Z,20
2016-10-18T11:10:34.867Z,16
2016-10-18T11:11:35.208Z,16
2016-10-18T11:12:35.154Z,20
2016-10-18T11:13:35.138Z,20
2016-10-18T11:14:35.118Z,20
2016-10-18T11:15:34.787Z,16
2016-10-18T11:16:35.121Z,16
2016-10-18T11:17:35.073Z,20
2016-10-18T11:18:35.059Z,16
2016-10-18T11:19:35.029Z,16
2016-10-18T11:20:35.025Z,20
2016-10-18T11:21:35.038Z,24
2016-10-18T11:22:34.686Z,24
2016-10-18T11:23:34.666Z,24
2016-10-18T11:24:34.959Z,28
2016-10-18T11:25:34.941Z,28
2016-10-18T11:26:34.928Z,24
2016-10-18T11:27:34.911Z,16
2016-10-18T11:28:34.896Z,16
2016-10-18T11:29:34.254Z,16
2016-10-18T11:30:34.860Z,16
2016-10-18T11:31:34.524Z,12
2016-10-18T11:32:34.518Z,16
2016-10-18T11:33:34.488Z,20
2016-10-18T11:34:34.487Z,20
2016-10-18T11:35:34.776Z,16
2016-10-18T11:36:34.767Z,20
2016-10-18T11:37:34.746Z,24
2016-10-18T11:38:34.103Z,24
2016-10-18T11:39:34.719Z,24
2016-10-18T11:40:34.716Z,20
2016-10-18T11:41:34.693Z,20
2016-10-18T11:42:34.356Z,20
2016-10-18T11:43:34.651Z,20
2016-10-18T11:44:34.638Z,24
2016-10-18T11:45:34.634Z,20
2016-10-18T11:46:34.283Z,20
2016-10-18T11:47:34.596Z,20
2016-10-18T11:48:34.567Z,16
2016-10-18T11:49:35.081Z,16
2016-10-18T11:50:34.548Z,16
2016-10-18T11:51:34.205Z,16
2016-10-18T11:52:34.210Z,20
2016-10-18T11:53:34.498Z,20
2016-10-18T11:54:34.479Z,16
2016-10-18T11:55:34.150Z,16
2016-10-18T11:56:34.485Z,16
2016-10-18T11:57:34.118Z,16
2016-10-18T11:58:34.098Z,16
2016-10-18T11:59:34.077Z,20
2016-10-18T12:00:34.069Z,16
2016-10-18T12:01:34.380Z,16
2016-10-18T12:02:34.038Z,16
2016-10-18T12:03:34.338Z,20
2016-10-18T12:04:34.005Z,16
2016-10-18T12:05:34.316Z,16
2016-10-18T12:06:33.972Z,12
2016-10-18T12:07:34.277Z,12
2016-10-18T12:08:34.278Z,12
2016-10-18T12:09:33.925Z,12
2016-10-18T12:10:33.912Z,12
2016-10-18T12:11:34.217Z,8
2016-10-18T12:12:34.207Z,8
2016-10-18T12:13:34.179Z,8
2016-10-18T12:14:34.173Z,12
2016-10-18T12:15:34.142Z,12
2016-10-18T12:16:33.823Z,8
2016-10-18T12:17:34.120Z,8
2016-10-18T12:18:34.104Z,8
2016-10-18T12:19:34.098Z,8
2016-10-18T12:20:34.072Z,8
2016-10-18T12:21:33.739Z,8
2016-10-18T12:22:34.038Z,16
2016-10-18T12:23:34.025Z,20
2016-10-18T12:24:33.689Z,20
2016-10-18T12:25:33.979Z,12
2016-10-18T12:26:33.980Z,16
2016-10-18T12:27:33.335Z,16
2016-10-18T12:28:33.315Z,16
2016-10-18T12:29:33.920Z,20
2016-10-18T12:30:33.598Z,20
2016-10-18T12:31:33.905Z,16
2016-10-18T12:32:33.880Z,16
2016-10-18T12:33:33.557Z,12
2016-10-18T12:34:33.215Z,8
2016-10-18T12:35:33.830Z,8
2016-10-18T12:36:33.515Z,8
2016-10-18T12:37:33.168Z,12
2016-10-18T12:38:33.487Z,16
2016-10-18T12:39:33.760Z,12
2016-10-18T12:40:33.437Z,12
2016-10-18T12:41:33.784Z,8
2016-10-18T12:42:33.726Z,12
2016-10-18T12:43:33.387Z,8
2016-10-18T12:44:33.694Z,8
2016-10-18T12:45:33.671Z,8
2016-10-18T12:46:33.649Z,8
2016-10-18T12:47:33.643Z,8
2016-10-18T12:48:33.311Z,8
2016-10-18T12:49:33.606Z,8
2016-10-18T12:50:33.631Z,8
2016-10-18T12:51:32.960Z,8
2016-10-18T12:52:33.559Z,4
2016-10-18T12:53:33.244Z,4
2016-10-18T12:54:33.527Z,4
2016-10-18T12:55:33.510Z,8
2016-10-18T12:56:33.493Z,4
2016-10-18T12:57:32.891Z,4
2016-10-18T12:58:33.463Z,4
2016-10-18T12:59:33.454Z,8
2016-10-18T13:00:33.433Z,4
2016-10-18T13:01:33.410Z,4
2016-10-18T13:02:33.401Z,4
2016-10-18T13:03:33.079Z,4
2016-10-18T13:04:33.407Z,4
2016-10-18T13:05:33.037Z,4
2016-10-18T13:06:33.330Z,4
2016-10-18T13:07:33.331Z,4
2016-10-18T13:08:33.005Z,4
2016-10-18T13:09:32.983Z,4
2016-10-18T13:10:33.344Z,8
2016-10-18T13:11:33.286Z,4
2016-10-18T13:12:33.261Z,4
2016-10-18T13:13:33.226Z,4
2016-10-18T13:14:33.233Z,4
2016-10-18T13:15:32.889Z,4
2016-10-18T13:16:33.189Z,4
2016-10-18T13:17:32.881Z,4
2016-10-18T13:18:33.148Z,4
2016-10-18T13:19:32.824Z,4
2016-10-18T13:20:33.143Z,4
2016-10-18T13:21:32.786Z,4
2016-10-18T13:22:33.175Z,4
2016-10-18T13:23:33.075Z,4
2016-10-18T13:24:33.051Z,4
2016-10-18T13:25:33.045Z,4
2016-10-18T13:26:33.030Z,4
2016-10-18T13:27:33.001Z,4
2016-10-18T13:28:32.368Z,4
2016-10-18T13:29:32.971Z,4
2016-10-18T13:30:32.950Z,4
2016-10-18T13:31:32.628Z,4
2016-10-18T13:32:32.309Z,8
2016-10-18T13:33:32.902Z,4
2016-10-18T13:34:32.899Z,4
2016-10-18T13:35:32.887Z,4
2016-10-18T13:36:32.546Z,4
2016-10-18T13:37:32.841Z,4
2016-10-18T13:38:32.516Z,4
2016-10-18T13:39:32.827Z,4
2016-10-18T13:40:32.826Z,4
2016-10-18T13:41:32.471Z,4
2016-10-18T13:42:32.783Z,4
2016-10-18T13:43:32.749Z,4
2016-10-18T13:44:32.733Z,4
2016-10-18T13:45:32.087Z,4
2016-10-18T13:46:32.690Z,8
2016-10-18T13:47:32.382Z,4
2016-10-18T13:48:32.708Z,4
2016-10-18T13:49:32.345Z,4
2016-10-18T13:50:32.658Z,4
2016-10-18T13:51:32.635Z,8
2016-10-18T13:52:32.297Z,4
2016-10-18T13:53:32.616Z,4
2016-10-18T13:54:32.267Z,4
2016-10-18T13:55:32.254Z,8
2016-10-18T13:56:32.284Z,4
2016-10-18T13:57:32.522Z,4
2016-10-18T13:58:32.512Z,4
2016-10-18T13:59:32.487Z,4
2016-10-18T14:00:32.515Z,4
2016-10-18T14:01:32.152Z,4
2016-10-18T14:02:32.441Z,4
2016-10-18T14:03:32.423Z,4
2016-10-18T14:04:32.422Z,0
2016-10-18T14:05:32.095Z,0
2016-10-18T14:06:32.378Z,4
2016-10-18T14:07:32.364Z,4
2016-10-18T14:08:32.354Z,4
2016-10-18T14:09:32.330Z,4
2016-10-18T14:10:31.683Z,4
2016-10-18T14:11:31.983Z,4
2016-10-18T14:12:32.282Z,4
2016-10-18T14:13:32.269Z,4
2016-10-18T14:14:31.937Z,4
2016-10-18T14:15:32.242Z,4
2016-10-18T14:16:31.908Z,4
2016-10-18T14:17:32.203Z,4
2016-10-18T14:18:32.200Z,4
2016-10-18T14:19:32.180Z,4
2016-10-18T14:20:32.161Z,0
2016-10-18T14:21:31.514Z,0
2016-10-18T14:22:32.132Z,4
2016-10-18T14:23:32.147Z,4
2016-10-18T14:24:32.094Z,4
2016-10-18T14:25:32.071Z,4
2016-10-18T14:26:32.064Z,4
2016-10-18T14:27:32.052Z,4
2016-10-18T14:28:32.033Z,4
2016-10-18T14:29:32.023Z,4
2016-10-18T14:30:32.008Z,4
2016-10-18T14:31:31.664Z,4
2016-10-18T14:32:31.973Z,4
2016-10-18T14:33:31.959Z,4
2016-10-18T14:34:31.936Z,4
2016-10-18T14:35:31.925Z,4
2016-10-18T14:36:31.590Z,0
2016-10-18T14:37:31.566Z,4
2016-10-18T14:38:31.555Z,4